createdAt,value
2019-02-26T00:01:55.160Z,75.90
2019-02-26T00:04:27.178Z,76.80
2019-02-26T00:06:57.800Z,77.00
2019-02-26T00:09:27.660Z,77.20
2019-02-26T00:11:57.384Z,76.60
2019-02-26T00:14:27.619Z,77.00
2019-02-26T00:16:57.155Z,77.50
2019-02-26T00:19:26.185Z,78.10
2019-02-26T00:21:55.151Z,78.20
2019-02-26T00:24:24.055Z,79.50
2019-02-26T00:26:53.049Z,79.30
2019-02-26T00:29:23.314Z,79.60
2019-02-26T00:31:53.477Z,79.80
2019-02-26T00:34:23.508Z,79.80
2019-02-26T00:36:52.539Z,79.70
2019-02-26T00:39:23.359Z,80.10
2019-02-26T00:41:53.568Z,80.50
2019-02-26T00:44:25.092Z,80.40
2019-02-26T00:46:55.463Z,80.70
2019-02-26T00:49:25.813Z,80.60
2019-02-26T00:51:55.040Z,80.80
2019-02-26T00:54:26.276Z,81.10
2019-02-26T00:56:57.067Z,81.40
2019-02-26T00:59:25.619Z,81.90
2019-02-26T01:01:55.242Z,82.50
2019-02-26T01:04:25.369Z,83.10
2019-02-26T01:06:54.425Z,84.30
2019-02-26T01:09:25.120Z,85.90
2019-02-26T01:11:54.190Z,82.90
2019-02-26T01:14:24.668Z,82.80
2019-02-26T01:16:53.908Z,82.40
2019-02-26T01:19:22.939Z,83.50
2019-02-26T01:21:51.806Z,84.80
2019-02-26T01:24:21.421Z,82.90
2019-02-26T01:26:51.688Z,83.90
2019-02-26T01:29:23.088Z,84.60
2019-02-26T01:31:51.712Z,83.90
2019-02-26T01:34:20.796Z,84.10
2019-02-26T01:36:49.886Z,84.50
2019-02-26T01:39:21.132Z,85.10
2019-02-26T01:41:51.126Z,85.50
2019-02-26T01:44:20.453Z,85.40
2019-02-26T01:46:49.599Z,85.50
2019-02-26T01:49:19.207Z,85.00
2019-02-26T01:51:50.066Z,84.60
2019-02-26T01:54:20.195Z,85.10
2019-02-26T01:56:50.890Z,85.00
2019-02-26T01:59:19.933Z,85.40
2019-02-26T02:01:51.399Z,85.30
2019-02-26T02:04:19.905Z,85.40
2019-02-26T02:06:49.121Z,85.10
2019-02-26T02:09:20.451Z,85.20
2019-02-26T02:11:50.732Z,85.30
2019-02-26T02:14:19.789Z,85.20
2019-02-26T02:16:48.831Z,85.10
2019-02-26T02:19:20.048Z,85.10
2019-02-26T02:21:49.418Z,85.10
2019-02-26T02:24:20.599Z,85.40
2019-02-26T02:26:52.931Z,86.20
2019-02-26T02:29:21.664Z,86.20
2019-02-26T02:31:52.351Z,86.40
2019-02-26T02:34:23.282Z,86.50
2019-02-26T02:36:53.524Z,86.50
2019-02-26T02:39:23.953Z,86.40
2019-02-26T02:41:54.949Z,86.40
2019-02-26T02:44:25.594Z,86.30
2019-02-26T02:46:54.753Z,86.40
2019-02-26T02:49:23.790Z,86.60
2019-02-26T02:51:52.812Z,86.70
2019-02-26T02:54:23.706Z,86.70
2019-02-26T02:56:52.671Z,86.50
2019-02-26T02:59:21.809Z,86.70
2019-02-26T03:01:52.500Z,86.80
2019-02-26T03:04:22.220Z,86.80
2019-02-26T03:06:52.936Z,86.70
2019-02-26T03:09:23.237Z,86.90
2019-02-26T03:11:53.060Z,87.50
2019-02-26T03:14:23.001Z,88.10
2019-02-26T03:16:53.522Z,88.40
2019-02-26T03:19:22.689Z,88.70
2019-02-26T03:21:52.533Z,88.80
2019-02-26T03:24:25.360Z,88.80
2019-02-26T03:26:53.228Z,89.40
2019-02-26T03:29:22.171Z,89.40
2019-02-26T03:31:54.665Z,89.80
2019-02-26T03:34:25.262Z,89.90
2019-02-26T03:36:52.723Z,90.00
2019-02-26T03:39:21.627Z,89.90
2019-02-26T03:41:51.552Z,89.70
2019-02-26T03:44:21.355Z,89.50
2019-02-26T03:46:50.453Z,89.70
2019-02-26T03:49:19.511Z,89.50
2019-02-26T03:51:48.511Z,88.70
2019-02-26T03:54:17.530Z,88.80
2019-02-26T03:56:46.556Z,89.10
2019-02-26T03:59:15.558Z,89.80
2019-02-26T04:01:44.607Z,89.00
2019-02-26T04:04:13.683Z,88.60
2019-02-26T04:06:45.869Z,88.30
2019-02-26T04:09:16.360Z,88.60
2019-02-26T04:11:47.069Z,89.00
2019-02-26T04:14:17.506Z,88.90
2019-02-26T04:16:45.916Z,88.30
2019-02-26T04:19:15.008Z,88.30
2019-02-26T04:22:21.025Z,88.80
2019-02-26T04:24:52.241Z,89.50
2019-02-26T04:27:57.000Z,90.10
2019-02-26T04:30:56.869Z,90.30
2019-02-26T04:33:46.900Z,90.40
2019-02-26T04:36:47.158Z,90.50
2019-02-26T04:40:02.405Z,90.60
2019-02-26T04:43:15.347Z,90.60
2019-02-26T04:46:21.583Z,90.50
2019-02-26T04:48:50.915Z,90.50
2019-02-26T04:51:19.978Z,90.50
2019-02-26T04:53:51.177Z,90.30
2019-02-26T04:56:20.031Z,90.20
2019-02-26T04:58:49.241Z,90.50
2019-02-26T05:01:19.134Z,90.60
2019-02-26T05:03:48.636Z,90.50
2019-02-26T05:06:17.688Z,90.60
2019-02-26T05:08:46.764Z,90.60
2019-02-26T05:11:30.820Z,90.90
2019-02-26T05:13:46.598Z,90.70
2019-02-26T05:16:15.591Z,90.70
2019-02-26T05:18:47.053Z,90.60
2019-02-26T05:21:15.434Z,90.70
2019-02-26T05:23:46.314Z,90.80
2019-02-26T05:26:18.064Z,90.70
2019-02-26T05:28:47.066Z,90.90
2019-02-26T05:31:17.447Z,91.10
2019-02-26T05:33:47.657Z,91.10
2019-02-26T05:36:17.444Z,91.10
2019-02-26T05:38:46.605Z,91.30
2019-02-26T05:41:15.595Z,91.30
2019-02-26T05:43:49.489Z,91.40
2019-02-26T05:46:16.582Z,91.40
2019-02-26T05:48:48.396Z,91.50
2019-02-26T05:51:17.118Z,91.70
2019-02-26T05:53:46.564Z,91.80
2019-02-26T05:56:17.178Z,91.80
2019-02-26T05:58:46.962Z,92.00
2019-02-26T06:01:19.273Z,91.80
2019-02-26T06:03:49.706Z,91.80
2019-02-26T06:06:17.936Z,91.80
2019-02-26T06:08:47.064Z,91.70
2019-02-26T06:11:17.068Z,91.90
2019-02-26T06:13:46.208Z,91.40
2019-02-26T06:16:15.211Z,91.60
2019-02-26T06:18:46.481Z,91.80
2019-02-26T06:21:16.515Z,91.80
2019-02-26T06:23:54.241Z,91.90
2019-02-26T06:26:27.931Z,92.20
2019-02-26T06:28:54.569Z,92.50
2019-02-26T06:31:25.010Z,92.40
2019-02-26T06:33:54.201Z,92.40
2019-02-26T06:36:23.893Z,92.40
2019-02-26T06:38:56.254Z,92.40
2019-02-26T06:41:24.895Z,92.40
2019-02-26T06:43:55.083Z,92.50
2019-02-26T06:46:26.245Z,92.50
2019-02-26T06:48:54.991Z,92.40
2019-02-26T06:51:26.012Z,92.30
2019-02-26T06:53:56.518Z,92.60
2019-02-26T06:56:25.480Z,92.50
2019-02-26T06:58:54.519Z,92.40
2019-02-26T07:01:23.541Z,92.20
2019-02-26T07:03:55.761Z,92.30
2019-02-26T07:06:25.485Z,92.40
2019-02-26T07:08:54.143Z,92.30
2019-02-26T07:11:25.617Z,92.10
2019-02-26T07:13:53.938Z,92.00
2019-02-26T07:16:22.931Z,91.80
2019-02-26T07:18:51.999Z,91.70
2019-02-26T07:21:21.121Z,91.60
2019-02-26T07:23:51.582Z,91.60
2019-02-26T07:26:23.047Z,91.70
2019-02-26T07:28:51.670Z,91.70
2019-02-26T07:31:20.672Z,91.90
2019-02-26T07:33:51.506Z,91.60
2019-02-26T07:36:21.153Z,91.40
2019-02-26T07:38:52.078Z,91.20
2019-02-26T07:41:23.241Z,91.10
2019-02-26T07:43:54.685Z,91.00
2019-02-26T07:46:23.588Z,90.90
2019-02-26T07:48:53.986Z,90.60
2019-02-26T07:51:23.435Z,90.50
2019-02-26T07:53:54.317Z,90.40
2019-02-26T07:56:25.533Z,90.20
2019-02-26T07:58:57.002Z,89.80
2019-02-26T08:01:24.743Z,89.50
2019-02-26T08:03:53.833Z,89.30
2019-02-26T08:06:22.928Z,89.30
2019-02-26T08:08:51.989Z,89.60
2019-02-26T08:11:20.953Z,89.10
2019-02-26T08:13:51.855Z,89.00
2019-02-26T08:16:23.059Z,88.60
2019-02-26T08:18:52.212Z,88.00
2019-02-26T08:21:24.737Z,87.60
2019-02-26T08:23:53.335Z,89.40
2019-02-26T08:26:24.263Z,90.60
2019-02-26T08:28:57.508Z,90.60
2019-02-26T08:31:32.966Z,90.50
2019-02-26T08:34:10.588Z,90.30
2019-02-26T08:36:39.052Z,89.00
2019-02-26T08:39:15.721Z,87.50
2019-02-26T08:42:05.933Z,87.40
2019-02-26T08:44:35.866Z,87.70
2019-02-26T08:47:08.713Z,87.70
2019-02-26T08:49:38.349Z,87.70
2019-02-26T08:52:16.680Z,88.10
2019-02-26T08:54:45.021Z,86.30
2019-02-26T08:57:14.587Z,84.90
2019-02-26T08:59:47.140Z,83.50
2019-02-26T09:02:23.240Z,83.20
2019-02-26T09:05:11.956Z,83.80
2019-02-26T09:07:56.828Z,84.90
2019-02-26T09:10:29.928Z,85.70
2019-02-26T09:13:18.667Z,86.00
2019-02-26T09:16:03.129Z,86.50
2019-02-26T09:19:01.200Z,86.80
2019-02-26T09:21:41.953Z,86.30
2019-02-26T09:24:18.079Z,84.10
2019-02-26T09:26:54.928Z,82.70
2019-02-26T09:29:34.132Z,79.60
2019-02-26T09:32:24.580Z,73.50
2019-02-26T09:34:57.434Z,72.10
2019-02-26T09:37:28.383Z,72.10
2019-02-26T09:40:02.966Z,72.60
2019-02-26T09:42:41.764Z,72.80
2019-02-26T09:45:22.974Z,73.00
2019-02-26T09:47:58.125Z,73.40
2019-02-26T09:50:28.923Z,73.20
2019-02-26T09:52:59.343Z,71.70
2019-02-26T09:55:30.236Z,71.10
2019-02-26T09:58:02.493Z,69.70
2019-02-26T10:00:37.681Z,68.30
2019-02-26T10:03:13.228Z,67.20
2019-02-26T10:05:47.643Z,66.60
2019-02-26T10:08:28.162Z,64.80
2019-02-26T10:11:02.699Z,60.20
2019-02-26T10:13:34.037Z,60.30
2019-02-26T10:16:08.925Z,60.50
2019-02-26T10:18:39.793Z,59.70
2019-02-26T10:21:14.726Z,60.00
2019-02-26T10:23:47.160Z,59.80
2019-02-26T10:26:16.317Z,59.30
2019-02-26T10:28:51.490Z,58.80
2019-02-26T10:31:18.381Z,57.00
2019-02-26T10:33:50.824Z,54.90
2019-02-26T10:36:24.114Z,54.50
2019-02-26T10:39:00.262Z,51.40
2019-02-26T10:41:30.226Z,49.70
2019-02-26T10:44:04.213Z,47.90
2019-02-26T10:46:36.906Z,46.70
2019-02-26T10:49:08.538Z,45.90
2019-02-26T10:51:42.386Z,45.90
2019-02-26T10:54:17.949Z,45.90
2019-02-26T10:56:50.228Z,44.10
2019-02-26T10:59:23.516Z,43.20
2019-02-26T11:01:55.749Z,41.60
2019-02-26T11:04:34.638Z,40.60
2019-02-26T11:07:04.819Z,41.30
2019-02-26T11:09:35.879Z,40.50
2019-02-26T11:12:08.476Z,38.40
2019-02-26T11:14:41.955Z,37.20
2019-02-26T11:17:15.816Z,36.60
2019-02-26T11:19:44.993Z,35.90
2019-02-26T11:22:17.723Z,35.10
2019-02-26T11:24:45.141Z,33.90
2019-02-26T11:27:14.100Z,32.80
2019-02-26T11:29:43.063Z,31.30
2019-02-26T11:32:13.496Z,31.50
2019-02-26T11:34:43.183Z,30.40
2019-02-26T11:37:12.347Z,29.30
2019-02-26T11:39:41.468Z,29.50
2019-02-26T11:42:10.562Z,28.80
2019-02-26T11:44:39.789Z,28.70
2019-02-26T11:47:11.019Z,28.90
2019-02-26T11:49:41.644Z,28.90
2019-02-26T11:52:10.446Z,29.50
2019-02-26T11:54:40.283Z,29.60
2019-02-26T11:57:12.908Z,29.70
2019-02-26T11:59:42.881Z,29.80
2019-02-26T12:02:12.292Z,29.30
2019-02-26T12:04:41.347Z,28.80
2019-02-26T12:07:10.743Z,28.70
2019-02-26T12:09:40.770Z,28.20
2019-02-26T12:12:11.659Z,26.60
2019-02-26T12:14:43.949Z,26.50
2019-02-26T12:17:12.876Z,26.60
2019-02-26T12:19:42.263Z,25.20
2019-02-26T12:22:12.412Z,24.10
2019-02-26T12:24:41.502Z,24.40
2019-02-26T12:27:16.247Z,23.70
2019-02-26T12:29:43.673Z,23.50
2019-02-26T12:32:12.548Z,22.80
2019-02-26T12:34:44.621Z,22.30
2019-02-26T12:37:12.373Z,22.10
2019-02-26T12:39:43.723Z,21.80
2019-02-26T12:42:13.975Z,22.10
2019-02-26T12:44:45.354Z,21.70
2019-02-26T12:47:15.528Z,21.60
2019-02-26T12:49:45.265Z,21.90
2019-02-26T12:52:21.254Z,21.70
2019-02-26T12:54:51.557Z,22.00
2019-02-26T12:57:23.761Z,21.90
2019-02-26T12:59:55.021Z,22.30
2019-02-26T13:02:28.185Z,21.90
2019-02-26T13:05:03.447Z,21.80
2019-02-26T13:07:34.720Z,22.00
2019-02-26T13:10:08.391Z,21.30
2019-02-26T13:12:38.475Z,21.10
2019-02-26T13:15:10.956Z,20.70
2019-02-26T13:17:44.493Z,20.50
2019-02-26T13:20:21.571Z,20.60
2019-02-26T13:22:56.485Z,21.60
2019-02-26T13:25:26.923Z,21.80
2019-02-26T13:27:55.844Z,21.60
2019-02-26T13:30:25.398Z,21.60
2019-02-26T13:33:00.724Z,21.20
2019-02-26T13:35:30.759Z,20.60
2019-02-26T13:38:04.824Z,20.90
2019-02-26T13:40:39.441Z,20.50
2019-02-26T13:43:23.362Z,20.20
2019-02-26T13:45:49.494Z,19.70
2019-02-26T13:48:20.011Z,19.00
2019-02-26T13:50:49.100Z,18.80
2019-02-26T13:53:18.273Z,19.10
2019-02-26T13:55:47.352Z,19.80
2019-02-26T13:58:16.500Z,22.40
2019-02-26T14:00:46.148Z,23.10
2019-02-26T14:03:15.651Z,22.90
2019-02-26T14:05:44.808Z,23.00
2019-02-26T14:08:13.899Z,23.00
2019-02-26T14:10:43.008Z,23.10
2019-02-26T14:13:11.920Z,23.00
2019-02-26T14:15:41.305Z,22.90
2019-02-26T14:18:10.431Z,22.30
2019-02-26T14:20:39.525Z,22.10
2019-02-26T14:23:08.724Z,22.50
2019-02-26T14:25:38.249Z,22.30
2019-02-26T14:28:07.497Z,22.40
2019-02-26T14:30:36.690Z,22.00
2019-02-26T14:33:05.952Z,22.30
2019-02-26T14:35:35.387Z,22.30
2019-02-26T14:38:05.048Z,22.20
2019-02-26T14:40:34.320Z,21.30
2019-02-26T14:43:03.549Z,21.00
2019-02-26T14:45:32.755Z,20.60
2019-02-26T14:48:02.033Z,20.10
2019-02-26T14:50:33.011Z,20.30
2019-02-26T14:53:02.826Z,21.00
2019-02-26T14:55:32.296Z,21.10
2019-02-26T14:58:01.584Z,21.00
2019-02-26T15:00:31.038Z,20.70
2019-02-26T15:03:00.419Z,21.30
2019-02-26T15:05:29.545Z,21.70
2019-02-26T15:07:58.780Z,21.80
2019-02-26T15:10:28.288Z,21.10
2019-02-26T15:12:58.104Z,20.70
2019-02-26T15:15:27.360Z,20.60
2019-02-26T15:17:56.620Z,21.00
2019-02-26T15:20:25.918Z,20.70
2019-02-26T15:22:55.228Z,21.20
2019-02-26T15:25:25.053Z,21.00
2019-02-26T15:27:54.312Z,21.20
2019-02-26T15:30:23.869Z,21.90
2019-02-26T15:32:53.121Z,21.60
2019-02-26T15:35:22.409Z,20.90
2019-02-26T15:37:51.759Z,20.50
2019-02-26T15:40:21.058Z,21.40
2019-02-26T15:42:53.026Z,22.40
2019-02-26T15:45:23.323Z,22.30
2019-02-26T15:47:52.693Z,22.70
2019-02-26T15:50:21.990Z,23.00
2019-02-26T15:52:52.956Z,23.10
2019-02-26T15:55:22.933Z,23.10
2019-02-26T15:57:52.226Z,23.20
2019-02-26T16:00:21.942Z,23.40
2019-02-26T16:02:51.790Z,23.70
2019-02-26T16:05:22.619Z,24.20
2019-02-26T16:07:51.995Z,24.90
2019-02-26T16:10:22.790Z,24.50
2019-02-26T16:12:52.176Z,24.70
2019-02-26T16:15:21.374Z,25.20
2019-02-26T16:17:50.628Z,26.00
2019-02-26T16:20:20.078Z,27.00
2019-02-26T16:22:49.375Z,27.70
2019-02-26T16:25:18.658Z,29.00
2019-02-26T16:27:47.849Z,30.00
2019-02-26T16:30:18.740Z,31.50
2019-02-26T16:32:48.938Z,32.10
2019-02-26T16:35:20.349Z,32.40
2019-02-26T16:37:49.392Z,32.70
2019-02-26T16:40:18.519Z,32.50
2019-02-26T16:42:48.201Z,32.30
2019-02-26T16:45:19.596Z,32.50
2019-02-26T16:47:49.433Z,33.10
2019-02-26T16:50:20.346Z,33.20
2019-02-26T16:52:49.427Z,33.90
2019-02-26T16:55:18.899Z,34.40
2019-02-26T16:57:48.435Z,34.80
2019-02-26T17:00:20.528Z,34.40
2019-02-26T17:02:49.559Z,35.70
2019-02-26T17:05:18.741Z,36.10
2019-02-26T17:07:47.791Z,37.20
2019-02-26T17:10:18.129Z,38.10
2019-02-26T17:12:52.736Z,39.40
2019-02-26T17:15:25.638Z,40.40
2019-02-26T17:17:54.245Z,40.70
2019-02-26T17:20:23.796Z,41.40
2019-02-26T17:22:53.359Z,41.70
2019-02-26T17:25:27.439Z,42.40
2019-02-26T17:27:53.314Z,42.70
2019-02-26T17:30:23.994Z,43.20
2019-02-26T17:32:53.177Z,43.80
2019-02-26T17:35:22.425Z,44.20
2019-02-26T17:37:51.771Z,44.60
2019-02-26T17:40:20.989Z,45.20
2019-02-26T17:42:51.230Z,45.60
2019-02-26T17:45:21.211Z,46.20
2019-02-26T17:47:50.527Z,46.70
2019-02-26T17:50:22.528Z,47.30
2019-02-26T17:52:51.727Z,47.90
2019-02-26T17:55:21.167Z,48.20
2019-02-26T17:57:50.303Z,48.70
2019-02-26T18:00:21.004Z,49.00
2019-02-26T18:02:50.068Z,49.10
2019-02-26T18:05:19.194Z,49.40
2019-02-26T18:07:48.330Z,49.90
2019-02-26T18:10:18.264Z,50.40
2019-02-26T18:12:47.262Z,50.80
2019-02-26T18:15:18.482Z,51.40
2019-02-26T18:17:48.115Z,52.10
2019-02-26T18:20:18.083Z,52.70
2019-02-26T18:22:47.304Z,53.30
2019-02-26T18:25:17.022Z,53.70
2019-02-26T18:27:46.682Z,54.00
2019-02-26T18:30:18.801Z,54.20
2019-02-26T18:32:50.507Z,54.50
2019-02-26T18:35:18.662Z,54.70
2019-02-26T18:37:47.728Z,55.00
2019-02-26T18:40:16.840Z,55.30
2019-02-26T18:42:46.630Z,55.50
2019-02-26T18:45:17.841Z,55.80
2019-02-26T18:47:47.673Z,56.30
2019-02-26T18:50:16.891Z,56.20
2019-02-26T18:52:46.811Z,56.60
2019-02-26T18:55:16.935Z,56.80
2019-02-26T18:57:46.044Z,56.90
2019-02-26T19:00:17.852Z,57.30
2019-02-26T19:02:47.319Z,57.60
2019-02-26T19:05:20.407Z,57.70
2019-02-26T19:07:47.608Z,57.90
2019-02-26T19:10:19.430Z,58.50
2019-02-26T19:12:47.462Z,58.80
2019-02-26T19:15:17.717Z,59.20
2019-02-26T19:17:48.583Z,59.50
2019-02-26T19:20:19.406Z,60.00
2019-02-26T19:22:52.113Z,60.60
2019-02-26T19:25:21.386Z,60.40
2019-02-26T19:27:52.805Z,60.70
2019-02-26T19:30:21.505Z,60.80
2019-02-26T19:32:50.645Z,61.10
2019-02-26T19:35:20.854Z,61.10
2019-02-26T19:37:52.769Z,61.50
2019-02-26T19:40:24.954Z,61.90
2019-02-26T19:42:54.103Z,61.90
2019-02-26T19:45:23.395Z,62.70
2019-02-26T19:47:55.764Z,62.60
2019-02-26T19:50:23.220Z,62.60
2019-02-26T19:52:56.914Z,62.90
2019-02-26T19:55:26.290Z,63.20
2019-02-26T19:57:55.485Z,63.40
2019-02-26T20:00:24.581Z,63.90
2019-02-26T20:02:53.704Z,64.20
2019-02-26T20:05:22.956Z,64.50
2019-02-26T20:07:53.194Z,64.70
2019-02-26T20:10:22.425Z,65.00
2019-02-26T20:12:51.623Z,65.40
2019-02-26T20:15:21.911Z,65.60
2019-02-26T20:17:51.751Z,65.60
2019-02-26T20:20:20.854Z,65.70
2019-02-26T20:22:50.649Z,66.60
2019-02-26T20:25:19.863Z,66.70
2019-02-26T20:27:49.376Z,66.80
2019-02-26T20:30:19.215Z,67.80
2019-02-26T20:32:48.314Z,67.30
2019-02-26T20:35:17.727Z,67.90
2019-02-26T20:37:46.859Z,68.20
2019-02-26T20:40:17.451Z,68.60
2019-02-26T20:42:46.709Z,69.00
2019-02-26T20:45:18.151Z,69.50
2019-02-26T20:47:48.241Z,70.00
2019-02-26T20:50:19.934Z,70.40
2019-02-26T20:52:48.067Z,70.70
2019-02-26T20:55:19.146Z,71.20
2019-02-26T20:57:49.240Z,71.10
2019-02-26T21:00:19.190Z,71.30
2019-02-26T21:02:48.438Z,71.60
2019-02-26T21:05:17.924Z,72.00
2019-02-26T21:07:47.062Z,72.50
2019-02-26T21:10:17.173Z,72.70
2019-02-26T21:12:46.263Z,73.10
2019-02-26T21:15:16.966Z,73.60
2019-02-26T21:17:46.122Z,73.50
2019-02-26T21:20:15.591Z,73.60
2019-02-26T21:22:44.752Z,73.70
2019-02-26T21:25:13.892Z,73.70
2019-02-26T21:27:43.029Z,73.90
2019-02-26T21:30:14.135Z,74.10
2019-02-26T21:32:43.216Z,74.50
2019-02-26T21:35:12.910Z,74.70
2019-02-26T21:37:42.387Z,75.00
2019-02-26T21:40:15.996Z,75.40
2019-02-26T21:42:43.099Z,75.70
2019-02-26T21:45:16.166Z,76.00
2019-02-26T21:47:44.820Z,76.30
2019-02-26T21:50:13.979Z,76.50
2019-02-26T21:52:43.622Z,76.40
2019-02-26T21:55:13.259Z,76.50
2019-02-26T21:57:42.439Z,76.70
2019-02-26T22:00:14.040Z,77.20
2019-02-26T22:02:44.415Z,77.40
2019-02-26T22:05:13.654Z,77.80
2019-02-26T22:07:42.831Z,78.50
2019-02-26T22:10:13.048Z,78.50
2019-02-26T22:12:42.155Z,78.70
2019-02-26T22:15:30.456Z,79.00
2019-02-26T22:17:59.851Z,79.10
2019-02-26T22:20:36.347Z,79.30
2019-02-26T22:23:00.307Z,79.60
2019-02-26T22:25:30.444Z,79.90
2019-02-26T22:27:59.947Z,80.30
2019-02-26T22:30:29.053Z,80.50
2019-02-26T22:32:58.155Z,80.50
2019-02-26T22:35:27.333Z,80.50
2019-02-26T22:37:56.420Z,80.40
2019-02-26T22:40:28.876Z,80.50
2019-02-26T22:42:56.323Z,80.40
2019-02-26T22:45:27.694Z,80.80
2019-02-26T22:47:56.283Z,81.50
2019-02-26T22:50:27.221Z,82.40
2019-02-26T22:52:56.430Z,82.90
2019-02-26T22:55:28.375Z,83.10
2019-02-26T22:57:57.452Z,82.90
2019-02-26T23:00:48.130Z,82.60
2019-02-26T23:03:14.799Z,82.70
2019-02-26T23:05:43.960Z,82.30
2019-02-26T23:08:13.037Z,83.30
2019-02-26T23:10:42.474Z,83.60
2019-02-26T23:13:11.595Z,83.60
2019-02-26T23:15:45.200Z,83.40
2019-02-26T23:18:12.278Z,83.40
2019-02-26T23:20:42.854Z,84.00
2019-02-26T23:23:12.624Z,84.90
2019-02-26T23:25:42.053Z,86.50
2019-02-26T23:28:11.217Z,86.60
2019-02-26T23:30:41.519Z,86.70
2019-02-26T23:33:15.011Z,86.90
2019-02-26T23:35:41.422Z,86.80
2019-02-26T23:38:10.503Z,86.60
2019-02-26T23:40:39.584Z,86.50
2019-02-26T23:43:11.788Z,87.00
2019-02-26T23:45:41.055Z,87.20
2019-02-26T23:48:10.205Z,87.10
2019-02-26T23:50:39.261Z,87.60
2019-02-26T23:53:08.375Z,87.50
2019-02-26T23:55:37.555Z,87.20
2019-02-26T23:58:06.623Z,87.30
